Time;durP1;ratioP1;P1;durP2;ratioP2;P2;SDS_P1;SDS_P2;PMS_P1;PMS_P2;Temp;Humidity;BMP_temperature;BMP_pressure;BME280_temperature;BME280_humidity;BME280_pressure;Samples;Min_cycle;Max_cycle;Signal;HPM_P1;HPM_P2
2021/07/09 00:03:10;;;;;;;5.63;1.55;;;;;;;19.65;83.75;100325.90;126672;1093;22787;-78
2021/07/09 00:05:43;;;;;;;8.95;2.15;;;;;;;19.66;83.65;100336.69;126995;1092;24169;-78
2021/07/09 00:08:20;;;;;;;8.63;2.10;;;;;;;19.65;83.34;100335.16;127064;1095;22767;-78
2021/07/09 00:10:54;;;;;;;7.83;2.28;;;;;;;19.63;83.48;100322.84;126978;1096;22846;-78
2021/07/09 00:13:25;;;;;;;9.55;2.40;;;;;;;19.63;83.23;100332.11;126903;1095;23818;-78
2021/07/09 00:16:00;;;;;;;10.70;3.05;;;;;;;19.62;83.29;100324.91;126880;1092;22786;-78
2021/07/09 00:18:34;;;;;;;8.20;2.43;;;;;;;19.60;83.10;100310.52;126843;1096;22870;-78
2021/07/09 00:21:16;;;;;;;6.70;1.95;;;;;;;19.58;83.22;100295.37;126905;1092;22738;-78
2021/07/09 00:23:54;;;;;;;9.85;2.50;;;;;;;19.55;83.27;100288.73;126866;1096;22812;-77
2021/07/09 00:26:27;;;;;;;7.83;2.13;;;;;;;19.53;83.29;100291.35;126917;1093;22817;-78
2021/07/09 00:29:04;;;;;;;7.23;2.10;;;;;;;19.51;83.28;100293.95;126970;1093;22758;-78
2021/07/09 00:31:36;;;;;;;7.88;2.15;;;;;;;19.47;83.17;100295.57;126896;1093;22735;-78
2021/07/09 00:34:10;;;;;;;7.13;2.20;;;;;;;19.44;83.20;100302.30;126876;1093;27491;-78
2021/07/09 00:36:42;;;;;;;7.60;1.75;;;;;;;19.41;83.07;100312.63;127033;1091;24588;-78
2021/07/09 00:39:15;;;;;;;8.25;2.15;;;;;;;19.41;83.40;100294.90;126882;1097;22743;-78
2021/07/09 00:41:46;;;;;;;10.18;2.68;;;;;;;19.40;83.37;100299.02;126954;1093;22755;-78
2021/07/09 00:44:17;;;;;;;10.35;2.35;;;;;;;19.40;83.68;100294.13;126895;1093;24443;-78
2021/07/09 00:46:53;;;;;;;12.75;2.85;;;;;;;19.39;83.52;100284.09;126874;1095;23250;-77
2021/07/09 00:49:30;;;;;;;8.20;2.20;;;;;;;19.40;83.52;100279.97;127208;1091;22944;-79
2021/07/09 00:52:05;;;;;;;6.93;2.37;;;;;;;19.39;83.58;100272.03;126947;1093;22917;-78
2021/07/09 00:54:37;;;;;;;10.15;2.78;;;;;;;19.35;83.69;100277.98;126969;1096;22853;-78
2021/07/09 00:57:09;;;;;;;11.50;2.85;;;;;;;19.32;83.68;100273.39;126492;1092;22800;-78
2021/07/09 00:59:43;;;;;;;9.50;2.40;;;;;;;19.33;83.92;100277.73;126661;1094;22813;-78
2021/07/09 01:02:16;;;;;;;8.30;2.57;;;;;;;19.32;83.92;100265.67;126930;1093;26279;-78
2021/07/09 01:04:48;;;;;;;8.93;2.30;;;;;;;19.32;83.85;100270.55;126803;1096;24283;-78
2021/07/09 01:07:21;;;;;;;14.60;2.25;;;;;;;19.30;83.96;100264.67;126969;1092;22731;-78
2021/07/09 01:09:57;;;;;;;9.38;2.28;;;;;;;19.31;84.18;100252.80;126977;1092;25848;-78
2021/07/09 01:12:29;;;;;;;9.15;2.43;;;;;;;19.32;84.11;100247.91;127167;1093;22958;-78
2021/07/09 01:15:00;;;;;;;8.73;2.50;;;;;;;19.28;84.08;100234.05;126910;1093;22815;-78
2021/07/09 01:17:32;;;;;;;9.80;2.23;;;;;;;19.27;84.37;100226.88;126931;1097;25861;-78
2021/07/09 01:20:12;;;;;;;7.43;2.28;;;;;;;19.27;84.15;100229.70;126857;1093;22797;-78
2021/07/09 01:22:48;;;;;;;13.38;2.35;;;;;;;19.27;84.43;100232.54;126875;1095;23591;-77
2021/07/09 01:25:22;;;;;;;12.25;1.95;;;;;;;19.26;84.50;100235.92;126995;1093;22822;-78
2021/07/09 01:27:55;;;;;;;14.03;2.60;;;;;;;19.23;84.35;100248.30;126826;1093;22836;-77
2021/07/09 01:30:31;;;;;;;14.30;2.55;;;;;;;19.20;84.23;100238.08;126905;1096;27336;-78
2021/07/09 01:33:02;;;;;;;10.98;2.68;;;;;;;19.17;84.56;100244.80;127050;1095;25781;-78
2021/07/09 01:35:35;;;;;;;11.28;2.53;;;;;;;19.16;84.72;100234.80;126974;1097;23227;-78
2021/07/09 01:38:11;;;;;;;12.25;2.28;;;;;;;19.18;84.34;100218.78;126956;1096;22761;-78
2021/07/09 01:40:44;;;;;;;14.63;3.33;;;;;;;19.21;84.42;100205.63;126843;1097;24464;-78
2021/07/09 01:43:15;;;;;;;12.90;2.53;;;;;;;19.22;84.40;100198.68;126847;1093;22842;-78
2021/07/09 01:45:50;;;;;;;21.23;3.40;;;;;;;19.23;84.62;100198.13;126857;1093;22773;-78
2021/07/09 01:48:23;;;;;;;10.88;2.98;;;;;;;19.25;84.95;100194.75;126800;1096;25954;-78
2021/07/09 01:50:55;;;;;;;9.40;3.00;;;;;;;19.27;84.26;100186.48;126855;1093;22804;-78
2021/07/09 01:53:28;;;;;;;9.80;2.53;;;;;;;19.29;84.54;100192.36;126848;1091;22766;-78
2021/07/09 01:55:59;;;;;;;10.48;2.75;;;;;;;19.29;84.76;100181.81;126843;1095;22971;-78
2021/07/09 01:58:31;;;;;;;13.50;3.43;;;;;;;19.29;84.50;100176.16;126930;1095;22809;-78
2021/07/09 02:01:02;;;;;;;14.58;3.25;;;;;;;19.31;84.84;100178.44;126901;1092;22797;-78
2021/07/09 02:03:38;;;;;;;11.55;3.23;;;;;;;19.30;84.79;100180.50;126796;1095;24623;-78
2021/07/09 02:06:10;;;;;;;11.65;2.50;;;;;;;19.33;84.68;100172.99;126889;1093;22745;-78
2021/07/09 02:08:49;;;;;;;11.60;3.20;;;;;;;19.33;84.81;100173.80;126967;1095;22714;-79
2021/07/09 02:11:22;;;;;;;12.03;3.10;;;;;;;19.33;84.84;100173.80;127006;1092;22762;-78
2021/07/09 02:13:53;;;;;;;12.33;2.65;;;;;;;19.35;85.06;100173.24;127001;1093;22797;-78
2021/07/09 02:16:27;;;;;;;12.88;3.00;;;;;;;19.34;84.91;100161.18;126846;1093;22779;-77
2021/07/09 02:18:58;;;;;;;10.40;3.48;;;;;;;19.36;84.91;100152.14;126912;1093;22828;-78
2021/07/09 02:21:29;;;;;;;12.75;2.83;;;;;;;19.39;85.29;100145.38;126862;1096;22861;-78
2021/07/09 02:24:04;;;;;;;7.63;2.58;;;;;;;19.41;85.06;100137.11;126782;1096;26391;-78
2021/07/09 02:26:36;;;;;;;11.00;3.15;;;;;;;19.43;84.86;100142.25;126929;1096;24424;-78
2021/07/09 02:29:10;;;;;;;14.38;2.85;;;;;;;19.45;84.85;100142.46;126744;1096;22803;-78
2021/07/09 02:31:44;;;;;;;12.83;3.70;;;;;;;19.45;84.98;100143.20;126355;1093;22804;-78
2021/07/09 02:34:16;;;;;;;11.35;3.20;;;;;;;19.45;84.98;100146.03;126563;1093;22773;-78
2021/07/09 02:36:49;;;;;;;11.38;2.93;;;;;;;19.45;85.13;100154.53;126933;1092;22803;-78
2021/07/09 02:39:20;;;;;;;12.35;3.98;;;;;;;19.46;84.97;100161.73;126916;1092;22824;-78
2021/07/09 02:41:51;;;;;;;8.33;2.85;;;;;;;19.48;84.89;100172.50;126887;1092;22803;-78
2021/07/09 02:44:24;;;;;;;12.83;3.10;;;;;;;19.49;85.08;100188.94;126913;1096;26238;-77
2021/07/09 02:46:58;;;;;;;10.25;3.33;;;;;;;19.48;84.95;100192.33;126768;1095;22773;-78
2021/07/09 02:49:29;;;;;;;10.68;3.35;;;;;;;19.46;85.15;100195.70;126769;1092;22765;-77
2021/07/09 02:52:01;;;;;;;12.58;3.63;;;;;;;19.46;85.12;100192.88;126432;1091;23213;-78
2021/07/09 02:54:35;;;;;;;10.83;3.28;;;;;;;19.49;85.18;100182.54;126821;1093;22786;-78
2021/07/09 02:57:12;;;;;;;11.35;3.43;;;;;;;19.48;85.29;100186.66;126843;1093;22769;-78
2021/07/09 02:59:43;;;;;;;11.67;3.23;;;;;;;19.50;85.52;100178.39;126701;1093;22767;-78
2021/07/09 03:02:15;;;;;;;11.70;3.80;;;;;;;19.50;85.27;100176.33;126875;1091;23428;-78
2021/07/09 03:04:46;;;;;;;13.60;3.88;;;;;;;19.50;85.39;100164.23;126889;1093;24579;-78
2021/07/09 03:07:17;;;;;;;11.93;3.95;;;;;;;19.52;85.34;100170.11;126825;1091;22847;-78
2021/07/09 03:09:48;;;;;;;10.63;3.67;;;;;;;19.52;85.60;100173.72;126816;1093;23249;-78
2021/07/09 03:12:22;;;;;;;12.48;4.05;;;;;;;19.53;85.49;100175.25;126869;1092;22917;-77
2021/07/09 03:14:53;;;;;;;12.20;4.15;;;;;;;19.52;85.31;100204.09;126722;1093;22846;-78
2021/07/09 03:17:26;;;;;;;13.10;4.15;;;;;;;19.52;85.48;100207.69;126706;1097;24199;-78
2021/07/09 03:19:58;;;;;;;15.23;4.88;;;;;;;19.52;85.26;100207.69;126684;1091;22870;-77
2021/07/09 03:22:30;;;;;;;13.20;4.77;;;;;;;19.53;85.04;100197.91;126281;1094;22802;-77
2021/07/09 03:25:02;;;;;;;12.07;4.20;;;;;;;19.53;85.03;100186.58;126303;1093;22797;-78
2021/07/09 03:27:33;;;;;;;13.57;4.57;;;;;;;19.53;85.15;100202.80;126430;1096;22800;-77
2021/07/09 03:30:10;;;;;;;18.05;5.03;;;;;;;19.54;85.36;100201.48;126304;1093;22767;-77
2021/07/09 03:32:42;;;;;;;15.25;4.23;;;;;;;19.54;85.36;100215.64;126329;1092;25400;-78
2021/07/09 03:35:16;;;;;;;15.38;5.48;;;;;;;19.49;85.41;100242.73;126307;1095;22790;-77
2021/07/09 03:37:47;;;;;;;13.28;4.03;;;;;;;19.42;85.82;100317.00;126349;1096;22774;-77
2021/07/09 03:40:19;;;;;;;18.73;5.35;;;;;;;19.35;86.17;100354.42;126300;1093;26289;-78
2021/07/09 03:42:50;;;;;;;12.20;5.03;;;;;;;19.25;86.47;100345.53;126334;1093;22787;-77
2021/07/09 03:45:22;;;;;;;17.00;5.30;;;;;;;19.19;86.38;100341.25;126311;1093;22797;-77
2021/07/09 03:47:53;;;;;;;15.18;5.15;;;;;;;19.16;86.60;100319.70;126363;1093;22847;-78
2021/07/09 03:50:25;;;;;;;14.83;4.85;;;;;;;19.11;86.68;100321.30;126301;1096;23257;-77
2021/07/09 03:53:00;;;;;;;13.37;4.47;;;;;;;19.10;86.89;100328.25;126409;1095;23463;-77
2021/07/09 03:55:36;;;;;;;13.40;5.28;;;;;;;19.08;86.86;100313.88;126319;1093;25957;-76
2021/07/09 03:58:10;;;;;;;15.55;5.20;;;;;;;19.09;87.05;100314.64;126399;1093;26248;-77
2021/07/09 04:00:42;;;;;;;17.43;5.10;;;;;;;19.08;87.15;100336.51;126355;1096;22770;-78
2021/07/09 04:03:13;;;;;;;16.63;6.08;;;;;;;19.08;87.07;100412.14;126388;1093;22774;-78
2021/07/09 04:05:48;;;;;;;15.85;6.23;;;;;;;19.10;87.51;100505.75;126269;1095;26459;-77
2021/07/09 04:08:24;;;;;;;16.50;6.43;;;;;;;19.10;87.74;100563.13;126397;1095;22723;-78
2021/07/09 04:10:59;;;;;;;16.93;5.73;;;;;;;19.10;88.35;100531.22;126515;1093;22855;-78
2021/07/09 04:13:30;;;;;;;9.05;1.60;;;;;;;19.02;88.76;100545.20;126318;1095;22795;-78
2021/07/09 04:16:07;;;;;;;9.75;1.05;;;;;;;18.96;88.70;100541.67;126635;1093;22918;-79
2021/07/09 04:18:48;;;;;;;5.35;0.80;;;;;;;18.91;88.29;100494.39;126446;1093;22798;-79
2021/07/09 04:21:23;;;;;;;2.60;0.30;;;;;;;18.86;88.51;100477.48;126405;1091;26238;-80
2021/07/09 04:23:57;;;;;;;2.83;0.35;;;;;;;18.81;89.18;100478.33;126282;1094;22864;-78
2021/07/09 04:26:36;;;;;;;1.25;0.30;;;;;;;18.78;88.87;100465.23;126357;1093;22830;-78
2021/07/09 04:29:11;;;;;;;2.10;0.40;;;;;;;18.74;89.14;100450.63;126507;1096;22778;-79
2021/07/09 04:31:48;;;;;;;3.00;0.40;;;;;;;18.72;88.71;100459.64;126555;1095;25767;-78
2021/07/09 04:34:20;;;;;;;2.08;0.40;;;;;;;18.70;88.79;100455.81;126612;1093;22742;-79
2021/07/09 04:36:51;;;;;;;4.43;0.48;;;;;;;18.67;88.93;100451.97;126988;1093;27227;-79
2021/07/09 04:39:25;;;;;;;3.73;0.35;;;;;;;18.66;89.04;100439.14;127363;1093;24119;-79
2021/07/09 04:41:59;;;;;;;3.53;0.35;;;;;;;18.67;88.96;100422.92;127281;1093;23634;-79
2021/07/09 04:44:46;;;;;;;2.43;0.30;;;;;;;18.64;89.64;100385.19;127197;1093;22853;-79
2021/07/09 04:47:21;;;;;;;2.70;0.30;;;;;;;18.61;89.97;100348.70;127295;1092;24258;-79
2021/07/09 04:50:06;;;;;;;2.40;0.38;;;;;;;18.56;89.64;100356.72;127082;1095;26465;-80
2021/07/09 04:52:41;;;;;;;2.05;0.45;;;;;;;18.54;91.24;100398.13;126773;1092;25892;-78
2021/07/09 04:55:15;;;;;;;1.98;0.40;;;;;;;18.50;90.01;100404.08;127498;1093;22775;-80
2021/07/09 04:57:50;;;;;;;4.10;0.50;;;;;;;18.49;90.27;100362.22;127726;1093;22744;-79
2021/07/09 05:00:24;;;;;;;3.70;0.70;;;;;;;18.47;90.46;100330.88;127968;1093;22755;-79
2021/07/09 05:02:58;;;;;;;3.40;0.93;;;;;;;18.47;90.00;100291.31;127959;1093;22736;-79
2021/07/09 05:05:30;;;;;;;2.18;0.50;;;;;;;18.48;90.25;100292.83;126961;1093;22773;-79
2021/07/09 05:08:09;;;;;;;3.65;0.50;;;;;;;18.50;89.97;100305.14;126837;1093;22850;-79
2021/07/09 05:10:43;;;;;;;2.25;0.40;;;;;;;18.51;89.93;100328.52;126852;1093;22745;-79
2021/07/09 05:13:15;;;;;;;1.37;0.50;;;;;;;18.53;90.00;100349.31;126543;1092;26289;-80
2021/07/09 05:15:46;;;;;;;3.38;0.40;;;;;;;18.54;89.91;100330.27;127015;1091;22816;-81
2021/07/09 05:18:22;;;;;;;4.43;0.40;;;;;;;18.55;89.50;100307.14;126907;1091;23479;-81
2021/07/09 05:20:58;;;;;;;4.60;0.63;;;;;;;18.55;89.69;100281.70;127055;1093;26344;-81
2021/07/09 05:23:30;;;;;;;2.03;0.40;;;;;;;18.56;89.97;100280.38;126935;1095;22770;-81
2021/07/09 05:26:01;;;;;;;1.55;0.40;;;;;;;18.58;89.84;100252.34;127115;1094;22844;-82
2021/07/09 05:28:35;;;;;;;2.00;0.45;;;;;;;18.60;89.61;100202.98;126947;1092;25988;-82
2021/07/09 05:31:07;;;;;;;2.60;0.40;;;;;;;18.58;90.10;100147.73;127249;1093;22858;-82
2021/07/09 05:33:40;;;;;;;1.18;0.23;;;;;;;18.58;89.63;100180.88;126924;1092;22797;-82
2021/07/09 05:36:11;;;;;;;3.28;0.30;;;;;;;18.61;89.45;100208.10;126855;1093;26014;-82
2021/07/09 05:38:54;;;;;;;1.00;0.30;;;;;;;18.62;89.25;100201.16;126976;1093;22803;-81
2021/07/09 05:41:35;;;;;;;3.23;0.20;;;;;;;18.65;89.34;100182.34;126945;1093;22791;-82
2021/07/09 05:44:16;;;;;;;1.07;0.20;;;;;;;18.66;89.40;100175.39;127226;1093;22882;-81
2021/07/09 05:46:53;;;;;;;1.28;0.25;;;;;;;18.67;89.37;100129.61;127055;1093;22802;-81
2021/07/09 05:49:31;;;;;;;0.85;0.13;;;;;;;18.68;89.34;100153.77;126830;1092;22763;-82
2021/07/09 05:52:04;;;;;;;1.45;0.30;;;;;;;18.68;89.09;100198.24;126655;1093;22807;-82
2021/07/09 05:54:42;;;;;;;0.73;0.20;;;;;;;18.68;89.22;100162.25;126669;1093;26241;-83
2021/07/09 05:57:13;;;;;;;0.73;0.20;;;;;;;18.69;89.09;100146.03;127114;1091;26325;-83
2021/07/09 05:59:44;;;;;;;1.00;0.20;;;;;;;18.69;88.90;100163.77;126826;1093;22726;-83
2021/07/09 06:02:16;;;;;;;1.05;0.10;;;;;;;18.70;88.86;100170.96;126900;1092;24497;-83
2021/07/09 06:04:55;;;;;;;5.08;0.40;;;;;;;18.72;88.98;100147.80;126852;1096;22806;-82
2021/07/09 06:07:27;;;;;;;2.23;0.30;;;;;;;18.72;88.94;100071.44;126882;1093;22786;-83
2021/07/09 06:09:59;;;;;;;1.00;0.23;;;;;;;18.71;89.13;100055.77;126912;1092;24336;-82
2021/07/09 06:12:31;;;;;;;1.33;0.20;;;;;;;18.70;88.90;100079.70;126920;1093;23480;-83
2021/07/09 06:15:03;;;;;;;1.75;0.30;;;;;;;18.67;88.97;100033.47;127063;1093;22804;-82
2021/07/09 06:17:35;;;;;;;3.70;0.50;;;;;;;18.68;89.16;99986.17;126983;1092;22824;-81
2021/07/09 06:20:11;;;;;;;3.95;0.40;;;;;;;18.67;89.23;100012.91;126885;1093;23625;-82
2021/07/09 06:22:46;;;;;;;2.93;0.50;;;;;;;18.70;89.33;100021.09;126889;1092;28326;-81
2021/07/09 06:25:19;;;;;;;3.33;0.90;;;;;;;18.73;88.96;100036.19;126936;1092;22817;-81
2021/07/09 06:27:51;;;;;;;4.23;1.08;;;;;;;18.76;89.23;100091.68;126851;1093;22855;-81
2021/07/09 06:30:22;;;;;;;3.00;0.70;;;;;;;18.79;89.42;100113.98;126852;1097;22707;-81
2021/07/09 06:32:54;;;;;;;2.30;0.40;;;;;;;18.80;89.46;100115.52;126897;1093;22789;-80
2021/07/09 06:47:08;;;;;;;2.20;0.30;;;;;;;18.85;89.69;100171.22;125641;1093;22797;-61
2021/07/09 06:49:40;;;;;;;1.88;0.50;;;;;;;18.86;89.68;100144.48;125749;1093;22831;-60
2021/07/09 06:52:14;;;;;;;1.83;0.30;;;;;;;18.86;89.57;100107.70;125618;1091;22819;-62
2021/07/09 06:54:45;;;;;;;1.88;0.30;;;;;;;18.90;89.56;100076.27;125563;1093;27169;-62
2021/07/09 06:57:18;;;;;;;2.55;0.43;;;;;;;18.93;89.61;100097.83;125718;1093;22808;-60
2021/07/09 06:59:49;;;;;;;4.03;0.60;;;;;;;18.95;89.79;100129.16;125715;1093;22774;-59
2021/07/09 07:02:21;;;;;;;2.60;0.35;;;;;;;18.97;89.84;100104.70;125630;1093;22825;-60
2021/07/09 07:04:52;;;;;;;2.98;0.60;;;;;;;19.00;89.41;100103.60;125581;1092;22790;-63
2021/07/09 07:07:24;;;;;;;3.78;0.88;;;;;;;19.01;89.44;100139.09;125750;1092;22763;-61
2021/07/09 07:09:56;;;;;;;5.13;1.00;;;;;;;18.98;89.38;100157.13;125798;1092;22779;-60
2021/07/09 07:12:30;;;;;;;6.73;0.80;;;;;;;19.01;89.40;100163.78;125686;1092;22794;-59
2021/07/09 07:15:04;;;;;;;5.70;0.88;;;;;;;19.03;89.43;100201.55;125656;1093;26239;-60
2021/07/09 07:17:37;;;;;;;5.93;0.60;;;;;;;19.01;89.40;100178.70;125727;1093;25871;-60
2021/07/09 07:20:11;;;;;;;4.43;0.80;;;;;;;19.02;89.41;100086.08;125694;1093;22928;-59
2021/07/09 07:22:42;;;;;;;1.33;0.40;;;;;;;19.02;89.13;100117.20;125703;1093;22772;-61
2021/07/09 07:25:15;;;;;;;3.45;0.60;;;;;;;19.03;89.43;100164.01;126066;1092;24468;-60
2021/07/09 07:27:48;;;;;;;3.57;0.80;;;;;;;19.04;89.33;100222.11;125674;1093;22733;-60
2021/07/09 07:30:20;;;;;;;5.07;0.70;;;;;;;19.03;89.29;100207.22;125671;1093;22764;-60
2021/07/09 07:32:56;;;;;;;6.90;1.00;;;;;;;19.01;89.14;100138.32;125949;1093;22928;-60
2021/07/09 07:35:28;;;;;;;6.30;1.20;;;;;;;19.02;89.25;100225.48;125784;1093;22791;-64
2021/07/09 07:38:03;;;;;;;6.15;1.60;;;;;;;18.99;89.02;100178.48;125812;1093;22797;-62
2021/07/09 07:40:35;;;;;;;14.10;1.98;;;;;;;18.97;89.17;100123.73;125743;1093;22791;-63
2021/07/09 07:43:07;;;;;;;6.10;1.53;;;;;;;18.91;88.72;100159.84;125612;1092;22822;-61
2021/07/09 07:45:39;;;;;;;7.60;1.50;;;;;;;18.87;89.19;100116.96;125666;1093;26287;-60
2021/07/09 07:48:11;;;;;;;5.85;1.60;;;;;;;18.84;88.73;100132.17;125865;1091;22818;-60
2021/07/09 07:50:43;;;;;;;5.45;1.43;;;;;;;18.82;89.13;100148.92;125787;1093;22815;-57
2021/07/09 07:53:15;;;;;;;7.07;1.97;;;;;;;18.80;88.95;100120.41;125815;1092;28502;-58
2021/07/09 07:55:47;;;;;;;9.48;1.68;;;;;;;18.81;89.27;100187.00;125625;1091;27645;-58
2021/07/09 07:58:19;;;;;;;9.60;2.28;;;;;;;18.84;89.46;100200.05;125633;1093;22815;-56
2021/07/09 08:00:52;;;;;;;7.43;1.68;;;;;;;18.84;89.52;100214.97;127528;1093;26027;-57
2021/07/09 08:03:24;;;;;;;7.18;1.65;;;;;;;18.83;89.23;100198.54;125698;1093;22767;-58
2021/07/09 08:05:57;;;;;;;7.73;1.48;;;;;;;18.85;89.21;100212.91;125521;1092;22928;-58
2021/07/09 08:08:28;;;;;;;7.83;1.85;;;;;;;18.88;89.32;100186.36;125558;1093;22769;-58
2021/07/09 08:11:00;;;;;;;7.50;1.63;;;;;;;18.90;89.01;100169.61;125567;1093;22921;-58
2021/07/09 08:13:31;;;;;;;8.47;2.30;;;;;;;18.94;88.98;100117.08;125610;1093;22826;-58
2021/07/09 08:16:03;;;;;;;12.83;2.78;;;;;;;18.94;88.71;100131.23;125695;1092;22806;-58
2021/07/09 08:18:35;;;;;;;9.35;2.25;;;;;;;18.94;89.08;100184.20;125955;1093;25867;-59
2021/07/09 08:21:07;;;;;;;8.45;2.00;;;;;;;18.91;89.34;100200.19;125716;1093;24457;-57
2021/07/09 08:23:40;;;;;;;7.63;1.60;;;;;;;18.93;89.81;100160.06;125675;1093;22767;-60
2021/07/09 08:26:14;;;;;;;8.70;1.53;;;;;;;18.94;89.96;100150.25;125844;1093;22818;-59
2021/07/09 08:28:46;;;;;;;9.53;2.43;;;;;;;18.95;89.72;100191.41;125511;1093;22794;-58
2021/07/09 08:31:19;;;;;;;8.85;2.50;;;;;;;18.95;89.64;100222.52;125692;1092;26284;-59
2021/07/09 08:33:50;;;;;;;10.10;2.68;;;;;;;18.98;89.86;100218.60;125669;1092;22794;-57
2021/07/09 08:38:54;;;;;;;8.45;2.60;;;;;;;19.02;89.78;100309.59;125706;1093;26232;-65
2021/07/09 08:41:27;;;;;;;8.55;2.30;;;;;;;19.02;89.76;100299.05;126313;1093;22859;-63
2021/07/09 08:43:59;;;;;;;8.60;2.60;;;;;;;18.95;89.12;100236.67;127112;1093;22948;-63
2021/07/09 08:46:33;;;;;;;12.58;2.83;;;;;;;18.88;89.40;100223.91;125930;1093;22784;-64
2021/07/09 08:49:08;;;;;;;12.03;2.55;;;;;;;18.88;89.24;100240.10;125937;1093;22972;-63
2021/07/09 08:51:41;;;;;;;10.88;2.55;;;;;;;18.85;89.33;100227.05;126100;1096;24413;-62
2021/07/09 08:54:15;;;;;;;10.30;2.40;;;;;;;18.79;89.10;100238.42;125913;1096;22755;-63
2021/07/09 08:56:51;;;;;;;12.70;3.50;;;;;;;18.80;89.12;100225.05;125951;1094;22799;-63
2021/07/09 08:59:23;;;;;;;10.43;2.40;;;;;;;18.79;89.52;100265.97;126073;1094;22784;-62
2021/07/09 09:02:03;;;;;;;9.65;2.88;;;;;;;18.79;89.47;100286.50;126095;1095;22936;-60
2021/07/09 09:04:36;;;;;;;8.90;2.83;;;;;;;18.80;89.49;100312.73;125849;1094;22760;-63
2021/07/09 09:07:11;;;;;;;11.63;3.30;;;;;;;18.75;89.56;100271.91;125662;1096;22826;-63
2021/07/09 09:09:44;;;;;;;12.30;3.48;;;;;;;18.73;89.47;100205.86;126329;1095;22785;-64
2021/07/09 09:12:17;;;;;;;14.40;3.68;;;;;;;18.70;89.47;100246.54;125783;1096;22816;-65
2021/07/09 09:14:52;;;;;;;11.65;3.23;;;;;;;18.69;89.46;100288.19;125756;1096;22764;-62
2021/07/09 09:17:32;;;;;;;12.18;2.80;;;;;;;18.69;89.71;100276.88;125848;1096;22790;-64
2021/07/09 09:20:16;;;;;;;11.45;3.75;;;;;;;18.69;89.53;100278.94;126671;1095;22828;-64
2021/07/09 09:23:01;;;;;;;9.13;2.40;;;;;;;18.66;89.70;100275.13;126090;1095;22878;-62
2021/07/09 09:25:34;;;;;;;10.48;2.70;;;;;;;18.67;89.79;100237.06;125957;1095;22781;-61
2021/07/09 09:28:08;;;;;;;12.48;3.25;;;;;;;18.67;89.69;100239.89;125692;1094;25861;-59
2021/07/09 09:30:42;;;;;;;8.28;2.30;;;;;;;18.68;89.72;100314.19;125785;1096;22760;-60
2021/07/09 09:33:20;;;;;;;9.63;2.75;;;;;;;18.68;89.86;100353.77;125564;1095;26382;-60
2021/07/09 09:35:56;;;;;;;11.98;2.20;;;;;;;18.67;89.65;100261.73;125654;1093;22760;-65
2021/07/09 09:38:30;;;;;;;9.77;3.23;;;;;;;18.67;89.86;100270.22;125579;1093;26069;-62
2021/07/09 09:41:03;;;;;;;11.80;3.03;;;;;;;18.69;90.23;100301.55;125862;1093;22800;-59
2021/07/09 09:43:36;;;;;;;9.60;2.33;;;;;;;18.68;90.07;100326.27;125543;1093;26239;-60
2021/07/09 09:46:11;;;;;;;10.13;2.33;;;;;;;18.68;89.83;100331.14;125824;1095;22754;-61
2021/07/09 09:48:50;;;;;;;10.80;2.23;;;;;;;18.70;90.18;100315.18;125697;1094;24458;-59
2021/07/09 09:51:31;;;;;;;9.40;2.60;;;;;;;18.73;89.88;100296.36;126092;1092;28970;-63
2021/07/09 09:54:05;;;;;;;8.83;2.63;;;;;;;18.74;90.16;100309.22;125766;1093;22849;-63
2021/07/09 09:56:40;;;;;;;9.83;2.33;;;;;;;18.69;90.00;100330.61;125848;1093;22772;-63
2021/07/09 09:59:19;;;;;;;14.85;3.00;;;;;;;18.67;89.87;100355.83;125623;1093;25850;-64
2021/07/09 10:01:53;;;;;;;9.90;2.73;;;;;;;18.65;89.96;100364.08;125668;1093;22761;-61
2021/07/09 10:04:28;;;;;;;12.35;3.03;;;;;;;18.66;89.87;100288.50;125594;1093;22770;-62
2021/07/09 10:07:00;;;;;;;10.95;2.70;;;;;;;18.66;89.87;100320.38;125876;1093;22769;-66
2021/07/09 10:09:42;;;;;;;9.13;2.35;;;;;;;18.64;90.15;100296.75;125793;1092;26236;-64
2021/07/09 10:12:20;;;;;;;9.30;2.50;;;;;;;18.63;90.31;100267.70;125624;1093;24496;-62
2021/07/09 10:14:56;;;;;;;9.23;2.45;;;;;;;18.65;90.06;100261.51;125870;1093;22871;-61
2021/07/09 10:17:30;;;;;;;9.10;2.40;;;;;;;18.68;90.11;100260.45;126190;1092;22790;-61
2021/07/09 10:20:04;;;;;;;7.38;2.68;;;;;;;18.73;90.25;100260.37;126552;1093;26239;-61
2021/07/09 10:22:48;;;;;;;7.40;2.30;;;;;;;18.81;90.65;100271.85;126019;1093;22770;-61
2021/07/09 10:25:25;;;;;;;7.80;2.30;;;;;;;18.90;90.90;100265.78;126508;1093;22827;-58
2021/07/09 10:27:58;;;;;;;9.88;2.83;;;;;;;18.97;91.25;100263.13;125760;1093;26726;-62
2021/07/09 10:30:39;;;;;;;12.50;2.83;;;;;;;19.05;91.27;100263.26;125740;1093;22916;-61
2021/07/09 10:33:31;;;;;;;7.23;2.25;;;;;;;19.12;91.38;100260.56;125937;1093;23499;-61
2021/07/09 10:36:09;;;;;;;9.13;1.95;;;;;;;19.17;90.97;100264.61;125847;1093;22857;-61
2021/07/09 10:38:43;;;;;;;11.05;2.35;;;;;;;19.21;91.18;100279.98;125789;1093;22773;-61
2021/07/09 10:41:17;;;;;;;14.90;2.15;;;;;;;19.25;90.96;100293.81;126120;1093;23053;-62
2021/07/09 10:44:14;;;;;;;10.45;2.80;;;;;;;19.29;90.96;100309.19;126009;1093;24163;-60
2021/07/09 10:46:48;;;;;;;9.80;2.00;;;;;;;19.31;90.75;100272.62;126123;1093;22748;-62
2021/07/09 10:49:50;;;;;;;8.97;2.10;;;;;;;19.32;90.57;100211.11;126045;1093;22771;-61
2021/07/09 10:52:49;;;;;;;7.70;1.95;;;;;;;19.29;90.52;100215.01;126271;1092;22920;-62
2021/07/09 10:55:55;;;;;;;7.53;2.00;;;;;;;19.34;91.00;100267.98;125958;1093;22740;-61
2021/07/09 10:58:35;;;;;;;6.78;1.80;;;;;;;19.40;91.32;100268.65;125884;1092;22943;-61
2021/07/09 11:01:23;;;;;;;8.07;1.90;;;;;;;19.44;91.36;100279.65;125978;1092;22794;-60
2021/07/09 11:04:11;;;;;;;8.78;2.30;;;;;;;19.48;91.55;100261.05;126293;1092;22859;-61
2021/07/09 11:06:44;;;;;;;14.68;2.78;;;;;;;19.53;91.33;100242.44;125993;1093;27263;-61
2021/07/09 11:09:16;;;;;;;10.43;2.18;;;;;;;19.62;92.01;100214.45;125797;1093;22790;-61
2021/07/09 11:11:54;;;;;;;10.23;2.30;;;;;;;19.78;92.16;100204.14;125900;1093;24494;-62
2021/07/09 11:14:37;;;;;;;8.78;2.25;;;;;;;19.96;93.14;100218.20;125878;1093;22783;-63
2021/07/09 11:17:21;;;;;;;13.00;2.60;;;;;;;20.10;93.22;100213.28;125981;1092;22770;-59
2021/07/09 11:20:12;;;;;;;9.60;2.23;;;;;;;20.27;92.85;100218.64;126065;1092;22962;-58
2021/07/09 11:22:44;;;;;;;7.05;1.78;;;;;;;20.42;93.00;100213.17;125731;1092;22773;-61
2021/07/09 11:25:16;;;;;;;8.10;2.28;;;;;;;20.54;93.32;100223.73;125616;1093;25578;-60
2021/07/09 11:27:51;;;;;;;6.57;2.60;;;;;;;20.70;93.32;100233.16;125624;1092;22973;-60
2021/07/09 11:30:25;;;;;;;7.73;1.98;;;;;;;20.84;92.99;100229.73;125867;1093;24181;-61
2021/07/09 11:32:58;;;;;;;7.80;1.95;;;;;;;21.03;93.38;100223.14;125888;1093;28563;-61
2021/07/09 11:35:30;;;;;;;8.10;2.30;;;;;;;21.15;93.30;100227.23;125628;1093;22835;-60
2021/07/09 11:38:02;;;;;;;8.53;2.30;;;;;;;21.25;92.63;100229.05;125843;1093;22794;-60
2021/07/09 11:40:33;;;;;;;8.93;2.23;;;;;;;21.33;92.67;100234.81;125704;1092;22851;-60
2021/07/09 11:43:05;;;;;;;10.08;2.05;;;;;;;21.40;92.27;100229.19;125618;1093;22966;-59
2021/07/09 11:45:41;;;;;;;8.73;2.58;;;;;;;21.42;91.58;100237.14;125649;1093;22992;-60
2021/07/09 11:48:13;;;;;;;8.45;2.00;;;;;;;21.46;91.47;100252.53;125522;1093;24274;-59
2021/07/09 11:50:45;;;;;;;6.95;2.25;;;;;;;21.46;91.53;100252.53;125649;1093;22819;-59
2021/07/09 11:53:18;;;;;;;7.25;2.38;;;;;;;21.48;91.32;100247.05;125566;1093;24467;-59
2021/07/09 11:55:50;;;;;;;9.70;2.85;;;;;;;21.51;91.37;100245.95;126100;1093;25963;-59
2021/07/09 11:58:25;;;;;;;11.15;2.98;;;;;;;21.55;90.92;100248.44;125640;1092;25886;-57
2021/07/09 12:01:05;;;;;;;11.00;2.35;;;;;;;21.60;90.92;100244.70;125781;1093;23498;-57
2021/07/09 12:03:47;;;;;;;7.30;2.33;;;;;;;21.65;90.98;100238.88;125773;1093;22810;-60